»·PEaware :: N525GM KSMX-KBFL

N525GM :: KSMX-KBFL

FLIGHT INFORMATION

Flight Status: Arrived
Operator: Privately registered:
United States
More flights under this callsign
Pilot: Timothy M. (16564)
Aircraft: CESSNA 208 CARAVAN
(C208)
More flights by this aircraft type
Origin: KSMX Santa Maria Pub/Capt Hancock
United States
Destination: KBFL Meadows
United States
More flights between these airports :: More routes between these airports
Route: +FLW
File this flight plan on PilotEdge
Remarks: CAT5
Altitude:
(Current/Filed)
7,500ft
Speed:
(Current/Filed)
120kts
Departed: 23-Sep-17 09:35 PM
Arrived: 23-Sep-17 10:15 PM
Distance/Time
Traveled:
76nm/0:40
Distance/Time
To Go:
Arrived

Flight Plot

Page will automatically refresh every two minutes.


Map Options




Map Legend


Flown Route
Filed Route
Departure Airport
Arrival Airport
Navaid (VOR, NDB)
Fix

Horizontal Profiles

Position Reports

Time Latitude Longitude Heading Altitude Ground
Speed
23-Sep-17 21:19 34.900998 -120.451741 228 266ft 0kts
23-Sep-17 21:20 34.900998 -120.451741 228 266ft 0kts
23-Sep-17 21:21 34.900998 -120.451741 228 266ft 0kts
23-Sep-17 21:22 34.900998 -120.451741 228 266ft 0kts
23-Sep-17 21:23 34.900998 -120.451742 228 266ft 0kts
23-Sep-17 21:24 34.900998 -120.451742 228 266ft 0kts
23-Sep-17 21:25 34.900998 -120.451742 228 266ft 0kts
23-Sep-17 21:26 34.900998 -120.451742 228 266ft 0kts
23-Sep-17 21:27 34.900998 -120.451742 228 266ft 0kts
23-Sep-17 21:28 34.900998 -120.451742 228 266ft 0kts
23-Sep-17 21:29 34.900998 -120.451742 228 266ft 0kts
23-Sep-17 21:30 34.900990 -120.451752 229 266ft 0kts
23-Sep-17 21:31 34.899997 -120.451109 155 266ft 6kts
23-Sep-17 21:32 34.897961 -120.449458 136 266ft 10kts
23-Sep-17 21:33 34.894561 -120.445500 156 266ft 15kts
23-Sep-17 21:34 34.893603 -120.445396 184 266ft 0kts
23-Sep-17 21:35 34.893603 -120.445396 184 266ft 0kts
23-Sep-17 21:36 34.893603 -120.445396 184 266ft 0kts
23-Sep-17 21:37 34.893603 -120.445396 184 266ft 0kts
23-Sep-17 21:38 34.893161 -120.446214 315 266ft 0kts
23-Sep-17 21:39 34.897775 -120.451720 315 374ft 112kts
23-Sep-17 21:40 34.932508 -120.468007 44 1335ft 155kts
23-Sep-17 21:41 34.939170 -120.428185 106 1943ft 112kts
23-Sep-17 21:42 34.930701 -120.400925 113 2887ft 120kts
23-Sep-17 21:43 34.937164 -120.354829 57 4191ft 137kts
23-Sep-17 21:44 34.951554 -120.321898 58 5079ft 131kts
23-Sep-17 21:45 34.966608 -120.284599 58 6129ft 123kts
23-Sep-17 21:46 34.983169 -120.242958 60 6309ft 157kts
23-Sep-17 21:47 35.001196 -120.196139 60 6542ft 147kts
23-Sep-17 21:48 35.016827 -120.155301 58 7324ft 138kts
23-Sep-17 21:49 35.034354 -120.110424 59 7336ft 158kts
23-Sep-17 21:50 35.052113 -120.063998 59 7497ft 148kts
23-Sep-17 21:51 35.068887 -120.020359 59 7507ft 146kts
23-Sep-17 21:52 35.085665 -119.976762 59 7507ft 146kts
23-Sep-17 21:53 35.102147 -119.933765 59 7508ft 142kts
23-Sep-17 21:54 35.118272 -119.891699 59 7510ft 142kts
23-Sep-17 21:55 35.134654 -119.848971 59 7285ft 147kts
23-Sep-17 21:56 35.151464 -119.805015 59 6599ft 147kts
23-Sep-17 21:57 35.168019 -119.761647 60 5829ft 145kts
23-Sep-17 21:58 35.183413 -119.720996 59 5496ft 119kts
23-Sep-17 21:59 35.197073 -119.685404 59 5525ft 132kts
23-Sep-17 22:00 35.213068 -119.643530 60 5512ft 143kts
23-Sep-17 22:01 35.229123 -119.601021 60 5250ft 139kts
23-Sep-17 22:02 35.244494 -119.560923 60 4228ft 133kts
23-Sep-17 22:03 35.259036 -119.522527 60 3500ft 115kts
23-Sep-17 22:04 35.272384 -119.487445 61 3527ft 133kts
23-Sep-17 22:05 35.287972 -119.446016 61 3505ft 137kts
23-Sep-17 22:06 35.304345 -119.402573 61 2953ft 138kts
23-Sep-17 22:07 35.318939 -119.363812 61 2436ft 124kts
23-Sep-17 22:08 35.332762 -119.327199 62 2018ft 124kts
23-Sep-17 22:09 35.346737 -119.289996 62 2008ft 125kts
23-Sep-17 22:10 35.360690 -119.252781 62 2007ft 122kts
23-Sep-17 22:11 35.363594 -119.213520 85 1832ft 127kts
23-Sep-17 22:12 35.365270 -119.172744 87 1501ft 114kts
23-Sep-17 22:13 35.371216 -119.137814 66 1510ft 108kts
23-Sep-17 22:14 35.385868 -119.105136 54 1512ft 116kts
23-Sep-17 22:15 35.392654 -119.070235 88 1318ft 101kts
23-Sep-17 22:16 35.394265 -119.033814 53 1365ft 102kts
23-Sep-17 22:17 35.412158 -119.030038 311 986ft 73kts
23-Sep-17 22:18 35.426311 -119.047109 310 659ft 68kts
23-Sep-17 22:19 35.436600 -119.059615 314 498ft 22kts
23-Sep-17 22:20 35.438216 -119.059917 71 498ft 0kts
23-Sep-17 22:21 35.437941 -119.058936 133 498ft 11kts
23-Sep-17 22:22 35.435655 -119.056163 135 499ft 12kts
23-Sep-17 22:23 35.435252 -119.053723 33 498ft 6kts
23-Sep-17 22:24 35.435715 -119.053073 187 499ft 0kts
23-Sep-17 22:25 35.435715 -119.053073 187 499ft 0kts

Navigation Log

Ident Type
1. KSMX Airport
2. FLW Navaid
3. KBFL Airport